createdAt,value
2022-12-11T00:00:18.846Z,109.10
2022-12-11T00:02:46.380Z,110.07
2022-12-11T00:05:16.764Z,126.03
2022-12-11T00:07:44.539Z,126.30
2022-12-11T00:10:12.097Z,139.25
2022-12-11T00:12:39.600Z,126.07
2022-12-11T00:15:07.865Z,108.82
2022-12-11T00:17:35.772Z,137.93
2022-12-11T00:20:03.324Z,116.72
2022-12-11T00:22:32.589Z,133.02
2022-12-11T00:25:00.180Z,104.82
2022-12-11T00:27:27.704Z,98.68
2022-12-11T00:29:55.215Z,91.07
2022-12-11T00:32:22.763Z,98.38
2022-12-11T00:34:50.253Z,104.53
2022-12-11T00:37:17.894Z,96.65
2022-12-11T00:39:46.968Z,119.20
2022-12-11T00:42:14.499Z,106.05
2022-12-11T00:44:41.999Z,97.32
2022-12-11T00:47:09.534Z,104.88
2022-12-11T00:49:37.042Z,105.43
2022-12-11T00:52:04.686Z,102.95
2022-12-11T00:54:32.283Z,85.18
2022-12-11T00:57:01.113Z,100.82
2022-12-11T00:59:29.359Z,93.38
2022-12-11T01:01:56.912Z,102.07
2022-12-11T01:04:24.594Z,128.18
2022-12-11T01:06:52.179Z,94.15
2022-12-11T01:09:33.617Z,110.25
2022-12-11T01:12:02.504Z,93.13
2022-12-11T01:14:30.264Z,102.82
2022-12-11T01:16:57.930Z,112.18
2022-12-11T01:19:25.471Z,137.55
2022-12-11T01:21:52.994Z,122.60
2022-12-11T01:24:20.610Z,112.28
2022-12-11T01:26:48.173Z,116.70
2022-12-11T01:29:17.059Z,114.78
2022-12-11T01:31:44.610Z,116.13
2022-12-11T01:34:12.444Z,92.45
2022-12-11T01:36:39.999Z,101.03
2022-12-11T01:39:07.511Z,83.22
2022-12-11T01:41:35.122Z,82.55
2022-12-11T01:44:06.264Z,84.15
2022-12-11T01:46:36.025Z,72.57
2022-12-11T01:49:05.486Z,72.95
2022-12-11T01:51:34.485Z,64.82
2022-12-11T01:54:04.531Z,63.58
2022-12-11T01:56:33.450Z,62.28
2022-12-11T01:59:02.817Z,66.10
2022-12-11T02:01:33.349Z,64.53
2022-12-11T02:04:02.612Z,59.97
2022-12-11T02:06:35.285Z,63.20
2022-12-11T02:09:02.921Z,52.05
2022-12-11T02:11:34.167Z,53.03
2022-12-11T02:14:06.102Z,54.40
2022-12-11T02:16:35.227Z,59.83
2022-12-11T02:19:09.078Z,69.43
2022-12-11T02:21:40.529Z,56.70
2022-12-11T02:24:24.778Z,56.75
2022-12-11T02:27:06.808Z,53.78
2022-12-11T02:29:37.831Z,57.90
2022-12-11T02:32:10.309Z,60.55
2022-12-11T02:34:40.308Z,54.35
2022-12-11T02:37:09.562Z,56.30
2022-12-11T02:39:37.791Z,53.67
2022-12-11T02:42:05.651Z,51.88
2022-12-11T02:44:34.740Z,48.63
2022-12-11T02:47:04.162Z,58.15
2022-12-11T02:49:32.199Z,59.33
2022-12-11T02:52:00.204Z,54.45
2022-12-11T02:54:29.199Z,52.10
2022-12-11T02:57:01.354Z,42.22
2022-12-11T02:59:31.633Z,58.90
2022-12-11T03:01:59.374Z,60.83
2022-12-11T03:04:29.306Z,53.85
2022-12-11T03:07:00.125Z,46.50
2022-12-11T03:09:28.177Z,38.92
2022-12-11T03:11:55.712Z,44.58
2022-12-11T03:14:23.209Z,44.20
2022-12-11T03:16:55.254Z,42.15
2022-12-11T03:19:28.839Z,33.38
2022-12-11T03:22:00.897Z,45.90
2022-12-11T03:24:31.264Z,38.70
2022-12-11T03:27:01.153Z,39.97
2022-12-11T03:29:32.479Z,38.40
2022-12-11T03:32:04.464Z,37.55
2022-12-11T03:34:35.031Z,34.40
2022-12-11T03:37:04.549Z,38.38
2022-12-11T03:39:33.502Z,39.28
2022-12-11T03:42:02.487Z,29.17
2022-12-11T03:44:30.888Z,31.83
2022-12-11T03:47:00.484Z,31.50
2022-12-11T03:49:30.472Z,33.47
2022-12-11T03:51:59.189Z,37.42
2022-12-11T03:54:28.694Z,32.83
2022-12-11T03:56:57.539Z,34.42
2022-12-11T03:59:25.103Z,36.08
2022-12-11T04:01:52.730Z,35.72
2022-12-11T04:04:20.401Z,37.50
2022-12-11T04:06:48.010Z,36.50
2022-12-11T04:09:15.498Z,38.08
2022-12-11T04:11:44.539Z,35.38
2022-12-11T04:14:30.611Z,37.03
2022-12-11T04:16:58.742Z,29.60
2022-12-11T04:19:43.977Z,33.80
2022-12-11T04:22:28.581Z,33.25
2022-12-11T04:27:42.506Z,31.75
2022-12-11T04:30:11.717Z,34.72
2022-12-11T04:32:39.315Z,38.15
2022-12-11T04:35:08.120Z,37.72
2022-12-11T04:37:35.818Z,31.25
2022-12-11T04:40:03.491Z,38.10
2022-12-11T04:42:37.286Z,40.88
2022-12-11T04:45:05.291Z,40.25
2022-12-11T04:47:32.831Z,30.90
2022-12-11T04:50:00.445Z,34.67
2022-12-11T04:52:27.934Z,35.60
2022-12-11T04:54:55.411Z,31.10
2022-12-11T04:57:23.108Z,30.17
2022-12-11T04:59:51.996Z,34.17
2022-12-11T05:02:19.694Z,47.97
2022-12-11T05:04:47.206Z,40.38
2022-12-11T05:07:14.802Z,30.55
2022-12-11T05:09:42.332Z,36.17
2022-12-11T05:12:09.823Z,36.80
2022-12-11T05:14:37.357Z,35.60
2022-12-11T05:17:06.222Z,34.65
2022-12-11T05:19:33.932Z,35.78
2022-12-11T05:22:01.392Z,27.50
2022-12-11T05:24:28.912Z,36.70
2022-12-11T05:26:56.416Z,29.55
2022-12-11T05:29:23.987Z,27.08
2022-12-11T05:31:51.525Z,28.45
2022-12-11T05:34:20.504Z,26.98
2022-12-11T05:36:48.115Z,25.77
2022-12-11T05:39:16.415Z,25.33
2022-12-11T05:41:43.981Z,23.60
2022-12-11T05:44:12.480Z,27.73
2022-12-11T05:46:40.513Z,28.30
2022-12-11T05:49:08.086Z,28.77
2022-12-11T05:51:37.075Z,26.35
2022-12-11T05:54:05.277Z,34.33
2022-12-11T05:56:33.968Z,25.20
2022-12-11T05:59:02.290Z,24.55
2022-12-11T06:01:31.109Z,40.97
2022-12-11T06:04:02.044Z,22.88
2022-12-11T06:06:30.121Z,27.38
2022-12-11T06:08:59.591Z,21.02
2022-12-11T06:11:28.392Z,25.30
2022-12-11T06:13:58.951Z,33.53
2022-12-11T06:16:29.084Z,29.83
2022-12-11T06:18:58.449Z,25.98
2022-12-11T06:21:27.041Z,41.15
2022-12-11T06:24:00.393Z,26.60
2022-12-11T06:26:28.609Z,29.83
2022-12-11T06:28:56.153Z,36.78
2022-12-11T06:31:23.935Z,32.35
2022-12-11T06:33:51.545Z,32.15
2022-12-11T06:36:31.750Z,46.42
2022-12-11T06:39:01.534Z,35.58
2022-12-11T06:41:29.054Z,31.98
2022-12-11T06:43:56.745Z,28.92
2022-12-11T06:46:24.342Z,31.23
2022-12-11T06:48:51.870Z,35.90
2022-12-11T06:51:21.550Z,31.60
2022-12-11T06:53:51.923Z,39.45
2022-12-11T06:56:20.872Z,26.63
2022-12-11T06:58:48.565Z,42.63
2022-12-11T07:01:18.053Z,34.15
2022-12-11T07:06:29.742Z,34.33
2022-12-11T07:09:00.129Z,30.35
2022-12-11T07:11:29.039Z,30.35
2022-12-11T07:13:56.552Z,29.60
2022-12-11T07:16:24.103Z,27.13
2022-12-11T07:18:52.363Z,36.05
2022-12-11T07:21:20.933Z,26.45
2022-12-11T07:23:48.820Z,32.58
2022-12-11T07:26:17.722Z,29.52
2022-12-11T07:28:47.342Z,28.98
2022-12-11T07:31:16.104Z,26.17
2022-12-11T07:33:44.594Z,26.45
2022-12-11T07:36:13.247Z,37.75
2022-12-11T07:38:41.286Z,34.13
2022-12-11T07:41:11.337Z,30.92
2022-12-11T07:43:38.831Z,36.95
2022-12-11T07:46:08.846Z,31.67
2022-12-11T07:48:36.748Z,41.40
2022-12-11T07:51:10.836Z,42.72
2022-12-11T07:59:50.656Z,39.65
2022-12-11T08:02:22.734Z,27.48
2022-12-11T08:04:50.596Z,28.25
2022-12-11T08:07:52.119Z,34.00
2022-12-11T08:10:19.948Z,30.55
2022-12-11T08:12:47.625Z,31.60
2022-12-11T08:15:15.132Z,29.35
2022-12-11T08:17:47.149Z,38.22
2022-12-11T08:20:16.962Z,37.13
2022-12-11T08:22:47.590Z,38.90
2022-12-11T08:25:15.095Z,31.02
2022-12-11T08:27:42.669Z,33.38
2022-12-11T08:30:11.658Z,31.23
2022-12-11T08:32:39.177Z,30.55
2022-12-11T08:35:08.791Z,41.60
2022-12-11T08:37:36.521Z,36.13
2022-12-11T08:40:04.109Z,45.90
2022-12-11T08:42:31.604Z,44.70
2022-12-11T08:44:59.680Z,37.55
2022-12-11T08:47:27.238Z,59.30
2022-12-11T08:49:54.782Z,39.45
2022-12-11T08:52:24.820Z,45.28
2022-12-11T08:54:52.444Z,53.38
2022-12-11T08:57:19.974Z,50.60
2022-12-11T08:59:47.547Z,46.67
2022-12-11T09:02:15.778Z,53.63
2022-12-11T09:04:43.320Z,45.38
2022-12-11T09:07:10.852Z,90.00
2022-12-11T09:09:39.792Z,64.97
2022-12-11T09:12:07.697Z,52.97
2022-12-11T09:14:35.533Z,43.75
2022-12-11T09:17:03.702Z,51.63
2022-12-11T09:19:32.554Z,59.05
2022-12-11T09:22:00.275Z,52.78
2022-12-11T09:24:27.757Z,50.88
2022-12-11T09:26:56.662Z,54.65
2022-12-11T09:29:24.202Z,57.90
2022-12-11T09:31:51.855Z,80.38
2022-12-11T09:34:28.698Z,49.08
2022-12-11T09:36:57.729Z,60.47
2022-12-11T09:39:25.332Z,69.22
2022-12-11T09:41:56.542Z,59.10
2022-12-11T09:44:33.880Z,55.25
2022-12-11T09:47:01.742Z,117.50
2022-12-11T09:49:33.043Z,81.35
2022-12-11T09:52:04.890Z,70.45
2022-12-11T09:54:33.257Z,76.03
2022-12-11T09:57:04.609Z,56.72
2022-12-11T09:59:40.693Z,67.03
2022-12-11T10:02:17.629Z,58.08
2022-12-11T10:04:50.376Z,53.33
2022-12-11T10:10:49.772Z,41.30
2022-12-11T10:36:09.296Z,38.10
2022-12-11T10:38:40.169Z,29.73
2022-12-11T10:41:12.850Z,33.60
2022-12-11T10:43:42.309Z,25.77
2022-12-11T10:46:15.840Z,31.38
2022-12-11T10:48:46.685Z,38.67
2022-12-11T10:51:16.820Z,37.80
2022-12-11T10:53:44.822Z,34.75
2022-12-11T10:56:13.998Z,37.65
2022-12-11T10:58:48.862Z,36.85
2022-12-11T11:01:17.601Z,38.67
2022-12-11T11:03:54.181Z,48.17
2022-12-11T11:06:27.060Z,58.42
2022-12-11T11:08:55.695Z,50.80
2022-12-11T11:11:28.046Z,47.75
2022-12-11T11:14:10.915Z,59.92
2022-12-11T11:16:39.813Z,60.20
2022-12-11T11:19:07.651Z,48.67
2022-12-11T11:21:37.026Z,55.25
2022-12-11T11:24:04.889Z,56.22
2022-12-11T11:27:04.449Z,49.92
2022-12-11T11:29:25.171Z,50.55
2022-12-11T11:38:37.345Z,43.05
2022-12-11T11:41:14.710Z,48.45
2022-12-11T11:50:09.804Z,45.88
2022-12-11T11:52:39.232Z,38.33
2022-12-11T11:55:11.021Z,50.28
2022-12-11T12:00:46.534Z,42.72
2022-12-11T12:17:49.272Z,35.78
2022-12-11T12:20:26.051Z,37.72
2022-12-11T12:22:58.566Z,31.30
2022-12-11T12:25:34.439Z,31.88
2022-12-11T12:28:08.001Z,30.20
2022-12-11T12:30:42.565Z,38.65
2022-12-11T12:33:19.006Z,36.55
2022-12-11T12:35:53.320Z,33.67
2022-12-11T12:40:57.037Z,38.45
2022-12-11T12:43:37.964Z,39.60
2022-12-11T12:46:14.117Z,33.45
2022-12-11T12:49:07.464Z,38.17
2022-12-11T12:51:44.083Z,28.23
2022-12-11T12:57:33.605Z,24.35
2022-12-11T13:00:16.504Z,21.13
2022-12-11T13:05:50.975Z,22.42
2022-12-11T13:11:20.796Z,15.60
2022-12-11T13:14:07.846Z,15.18
2022-12-11T13:16:45.900Z,17.90
2022-12-11T13:19:28.160Z,17.58
2022-12-11T13:21:56.594Z,16.15
2022-12-11T13:24:28.319Z,18.27
2022-12-11T13:26:59.541Z,12.65
2022-12-11T13:29:32.669Z,15.07
2022-12-11T13:32:01.386Z,16.25
2022-12-11T13:34:33.174Z,13.95
2022-12-11T13:37:01.068Z,15.85
2022-12-11T13:39:30.547Z,14.65
2022-12-11T13:42:01.056Z,15.10
2022-12-11T13:44:30.702Z,18.75
2022-12-11T13:46:59.432Z,12.48
2022-12-11T13:49:28.971Z,17.77
2022-12-11T13:51:58.212Z,10.90
2022-12-11T13:54:27.592Z,13.77
2022-12-11T13:57:16.472Z,19.38
2022-12-11T13:59:50.688Z,10.52
2022-12-11T14:02:20.909Z,15.90
2022-12-11T14:04:49.426Z,12.18
2022-12-11T14:07:21.244Z,13.48
2022-12-11T14:09:48.818Z,10.68
2022-12-11T14:12:21.303Z,11.50
2022-12-11T14:14:52.238Z,14.75
2022-12-11T14:17:27.361Z,8.02
2022-12-11T14:19:55.786Z,11.55
2022-12-11T14:22:24.441Z,11.73
2022-12-11T14:24:52.677Z,12.85
2022-12-11T14:27:22.073Z,20.63
2022-12-11T14:29:50.089Z,11.60
2022-12-11T14:32:19.713Z,11.60
2022-12-11T14:34:49.293Z,9.35
2022-12-11T14:37:18.151Z,13.13
2022-12-11T14:39:47.322Z,9.15
2022-12-11T14:42:15.961Z,12.02
2022-12-11T14:44:47.925Z,10.07
2022-12-11T14:47:16.991Z,11.25
2022-12-11T14:49:49.149Z,10.82
2022-12-11T14:52:18.264Z,11.15
2022-12-11T14:54:47.588Z,9.30
2022-12-11T14:57:19.402Z,12.05
2022-12-11T14:59:50.576Z,14.18
2022-12-11T15:02:24.489Z,8.45
2022-12-11T15:05:03.718Z,8.15
2022-12-11T15:07:31.218Z,13.55
2022-12-11T15:09:59.062Z,15.05
2022-12-11T15:12:26.610Z,8.80
2022-12-11T15:14:56.643Z,11.05
2022-12-11T15:17:25.164Z,12.75
2022-12-11T15:19:54.053Z,12.77
2022-12-11T15:22:25.180Z,12.18
2022-12-11T15:24:53.930Z,16.83
2022-12-11T15:27:26.016Z,10.98
2022-12-11T15:29:55.384Z,9.90
2022-12-11T15:32:23.015Z,12.82
2022-12-11T15:34:52.407Z,11.05
2022-12-11T15:37:29.850Z,11.63
2022-12-11T15:39:58.511Z,12.18
2022-12-11T15:42:27.901Z,11.65
2022-12-11T15:44:57.139Z,11.40
2022-12-11T15:47:25.484Z,14.20
2022-12-11T15:49:55.134Z,14.65
2022-12-11T15:52:22.874Z,12.30
2022-12-11T15:54:50.728Z,10.07
2022-12-11T15:57:20.437Z,11.43
2022-12-11T15:59:49.468Z,12.48
2022-12-11T16:02:18.510Z,12.60
2022-12-11T16:04:49.440Z,12.65
2022-12-11T16:07:18.646Z,10.35
2022-12-11T16:09:46.460Z,10.02
2022-12-11T16:12:14.480Z,13.43
2022-12-11T16:14:42.421Z,9.52
2022-12-11T16:17:10.601Z,10.05
2022-12-11T16:19:39.697Z,10.73
2022-12-11T16:22:08.671Z,8.52
2022-12-11T16:24:36.511Z,7.50
2022-12-11T16:27:04.399Z,7.72
2022-12-11T16:29:34.928Z,8.43
2022-12-11T16:32:02.487Z,6.88
2022-12-11T16:34:33.639Z,5.82
2022-12-11T16:37:02.842Z,9.77
2022-12-11T16:39:30.384Z,8.02
2022-12-11T16:41:57.999Z,12.23
2022-12-11T16:44:26.360Z,11.73
2022-12-11T16:46:54.576Z,12.43
2022-12-11T16:49:25.007Z,10.98
2022-12-11T16:51:52.614Z,11.27
2022-12-11T16:54:21.602Z,15.65
2022-12-11T16:56:49.498Z,13.80
2022-12-11T16:59:17.072Z,19.65
2022-12-11T17:01:45.479Z,16.73
2022-12-11T17:04:13.321Z,21.25
2022-12-11T17:06:46.389Z,19.80
2022-12-11T17:09:13.916Z,23.38
2022-12-11T17:11:42.774Z,22.33
2022-12-11T17:14:12.611Z,32.95
2022-12-11T17:16:40.487Z,23.13
2022-12-11T17:19:09.301Z,24.60
2022-12-11T17:21:36.876Z,19.23
2022-12-11T17:24:04.423Z,25.05
2022-12-11T17:26:32.085Z,21.13
2022-12-11T17:29:01.002Z,23.98
2022-12-11T17:31:47.085Z,22.02
2022-12-11T17:34:14.627Z,21.85
2022-12-11T17:36:42.496Z,25.80
2022-12-11T17:39:10.130Z,21.30
2022-12-11T17:41:37.695Z,27.25
2022-12-11T17:44:06.594Z,29.17
2022-12-11T17:46:34.137Z,21.55
2022-12-11T17:49:03.219Z,23.20
2022-12-11T17:51:31.638Z,17.60
2022-12-11T17:53:59.196Z,21.58
2022-12-11T17:56:26.941Z,20.38
2022-12-11T17:58:54.495Z,26.40
2022-12-11T18:01:23.490Z,28.30
2022-12-11T18:03:51.311Z,31.10
2022-12-11T18:06:19.592Z,44.42
2022-12-11T18:08:47.101Z,31.40
2022-12-11T18:11:15.577Z,45.75
2022-12-11T18:13:43.568Z,40.40
2022-12-11T18:16:12.600Z,39.65
2022-12-11T18:18:42.085Z,33.15
2022-12-11T18:21:12.909Z,37.65
2022-12-11T18:23:40.434Z,36.38
2022-12-11T18:26:08.086Z,31.15
2022-12-11T18:28:35.659Z,37.13
2022-12-11T18:31:03.586Z,35.00
2022-12-11T18:33:32.298Z,32.53
2022-12-11T18:36:02.283Z,35.35
2022-12-11T18:38:29.837Z,39.85
2022-12-11T18:40:57.348Z,29.42
2022-12-11T18:43:26.246Z,30.08
2022-12-11T18:45:53.970Z,32.92
2022-12-11T18:48:21.711Z,44.55
2022-12-11T18:50:50.347Z,35.67
2022-12-11T18:53:19.646Z,24.30
2022-12-11T18:55:47.978Z,25.60
2022-12-11T18:58:18.031Z,25.63
2022-12-11T19:00:45.825Z,12.95
2022-12-11T19:03:15.686Z,8.60
2022-12-11T19:05:45.836Z,5.72
2022-12-11T19:08:54.751Z,8.23
2022-12-11T19:11:25.708Z,8.07
2022-12-11T19:13:55.031Z,9.82
2022-12-11T19:16:23.817Z,8.23
2022-12-11T19:18:58.808Z,9.85
2022-12-11T19:21:26.359Z,7.25
2022-12-11T19:24:03.426Z,8.40
2022-12-11T19:30:02.344Z,6.75
2022-12-11T19:32:40.261Z,12.75
2022-12-11T19:35:08.192Z,9.15
2022-12-11T19:37:35.882Z,12.20
2022-12-11T19:40:03.681Z,9.68
2022-12-11T19:45:57.528Z,14.93
2022-12-11T19:48:25.780Z,11.13
2022-12-11T19:50:53.411Z,15.00
2022-12-11T19:53:21.821Z,16.65
2022-12-11T19:55:53.149Z,15.85
2022-12-11T19:58:23.915Z,10.63
2022-12-11T20:01:12.037Z,11.07
2022-12-11T20:03:41.461Z,13.63
2022-12-11T20:13:48.382Z,14.63
2022-12-11T20:16:46.272Z,15.98
2022-12-11T20:22:44.370Z,11.30
2022-12-11T20:25:31.909Z,10.48
2022-12-11T20:31:26.691Z,14.07
2022-12-11T20:34:35.204Z,12.70
2022-12-11T20:37:13.211Z,10.77
2022-12-11T20:42:55.660Z,9.57
2022-12-11T20:45:23.125Z,10.80
2022-12-11T20:47:58.888Z,12.05
2022-12-11T20:50:26.444Z,8.77
2022-12-11T20:52:54.133Z,10.30
2022-12-11T20:55:21.805Z,13.98
2022-12-11T20:57:49.392Z,11.40
2022-12-11T21:00:21.977Z,11.77
2022-12-11T21:02:50.842Z,14.02
2022-12-11T21:05:20.693Z,12.93
2022-12-11T21:07:48.803Z,16.25
2022-12-11T21:10:16.798Z,16.90
2022-12-11T21:12:44.382Z,10.07
2022-12-11T21:15:13.115Z,15.75
2022-12-11T21:17:42.542Z,14.68
2022-12-11T21:20:17.557Z,12.25
2022-12-11T21:22:52.484Z,10.15
2022-12-11T21:25:20.305Z,11.88
2022-12-11T21:27:49.014Z,12.82
2022-12-11T21:30:16.605Z,9.00
2022-12-11T21:32:45.822Z,15.98
2022-12-11T21:35:13.844Z,8.50
2022-12-11T21:37:41.913Z,8.07
2022-12-11T21:40:10.520Z,9.95
2022-12-11T21:42:41.289Z,11.13
2022-12-11T21:48:00.955Z,6.82
2022-12-11T21:50:28.516Z,11.73
2022-12-11T21:52:57.673Z,6.80
2022-12-11T21:55:25.944Z,10.55
2022-12-11T21:57:54.822Z,11.25
2022-12-11T22:00:22.897Z,10.38
2022-12-11T22:02:50.499Z,8.02
2022-12-11T22:05:23.983Z,11.25
2022-12-11T22:07:51.696Z,10.23
2022-12-11T22:10:29.983Z,11.10
2022-12-11T22:12:57.783Z,9.38
2022-12-11T22:15:25.646Z,9.02
2022-12-11T22:17:58.942Z,6.75
2022-12-11T22:20:31.687Z,9.80
2022-12-11T22:23:09.910Z,8.48
2022-12-11T22:25:37.598Z,11.15
2022-12-11T22:28:05.662Z,11.32
2022-12-11T22:30:33.244Z,7.85
2022-12-11T22:33:00.826Z,8.23
2022-12-11T22:35:29.833Z,11.80
2022-12-11T22:37:57.463Z,8.45
2022-12-11T22:40:25.703Z,9.52
2022-12-11T22:42:53.291Z,9.45
2022-12-11T22:45:20.948Z,9.18
2022-12-11T22:47:48.542Z,12.50
2022-12-11T22:50:16.918Z,7.25
2022-12-11T22:52:45.878Z,7.43
2022-12-11T22:55:13.499Z,7.53
2022-12-11T22:57:41.179Z,7.55
2022-12-11T23:00:09.598Z,10.30
2022-12-11T23:02:37.726Z,7.72
2022-12-11T23:05:05.491Z,10.43
2022-12-11T23:07:33.123Z,7.00
2022-12-11T23:10:02.033Z,10.85
2022-12-11T23:12:29.633Z,10.80
2022-12-11T23:14:57.323Z,10.38
2022-12-11T23:17:24.895Z,12.23
2022-12-11T23:19:52.420Z,8.52
2022-12-11T23:22:19.914Z,10.32
2022-12-11T23:24:47.413Z,10.68
2022-12-11T23:27:16.358Z,8.63
2022-12-11T23:29:43.831Z,12.68
2022-12-11T23:32:11.339Z,10.77
2022-12-11T23:34:38.849Z,9.57
2022-12-11T23:37:06.404Z,10.77
2022-12-11T23:39:33.942Z,10.88
2022-12-11T23:42:01.446Z,12.15
2022-12-11T23:44:30.359Z,11.05
2022-12-11T23:46:57.878Z,9.10
2022-12-11T23:49:25.407Z,7.88
2022-12-11T23:51:52.914Z,12.07
2022-12-11T23:54:20.495Z,9.98
2022-12-11T23:56:48.052Z,13.50
2022-12-11T23:59:15.646Z,9.82
